sensor_id;sensor_type;location;lat;lon;timestamp;P1;durP1;ratioP1;P2;durP2;ratioP2
73132;SDS011;61320;52.008;4.530;2022-07-29T00:00:11;1.93;;;1.93;;
73132;SDS011;61320;52.008;4.530;2022-07-29T00:02:37;1.87;;;1.87;;
73132;SDS011;61320;52.008;4.530;2022-07-29T00:05:03;2.02;;;2.02;;
73132;SDS011;61320;52.008;4.530;2022-07-29T00:07:29;2.00;;;2.00;;
73132;SDS011;61320;52.008;4.530;2022-07-29T00:09:55;1.77;;;1.77;;
73132;SDS011;61320;52.008;4.530;2022-07-29T00:12:21;1.89;;;1.89;;
73132;SDS011;61320;52.008;4.530;2022-07-29T00:14:48;1.56;;;1.56;;
73132;SDS011;61320;52.008;4.530;2022-07-29T00:17:13;1.85;;;1.85;;
73132;SDS011;61320;52.008;4.530;2022-07-29T00:19:39;1.90;;;1.90;;
73132;SDS011;61320;52.008;4.530;2022-07-29T00:22:05;1.99;;;1.99;;
73132;SDS011;61320;52.008;4.530;2022-07-29T00:24:30;1.81;;;1.81;;
73132;SDS011;61320;52.008;4.530;2022-07-29T00:26:55;2.00;;;2.00;;
73132;SDS011;61320;52.008;4.530;2022-07-29T00:29:21;1.74;;;1.74;;
73132;SDS011;61320;52.008;4.530;2022-07-29T00:31:47;1.69;;;1.69;;
73132;SDS011;61320;52.008;4.530;2022-07-29T00:34:12;1.88;;;1.88;;
73132;SDS011;61320;52.008;4.530;2022-07-29T00:36:57;1.67;;;1.67;;
73132;SDS011;61320;52.008;4.530;2022-07-29T00:39:23;1.90;;;1.90;;
73132;SDS011;61320;52.008;4.530;2022-07-29T00:41:49;1.65;;;1.65;;
73132;SDS011;61320;52.008;4.530;2022-07-29T00:44:14;1.74;;;1.74;;
73132;SDS011;61320;52.008;4.530;2022-07-29T00:46:40;1.73;;;1.73;;
73132;SDS011;61320;52.008;4.530;2022-07-29T00:49:05;1.75;;;1.75;;
73132;SDS011;61320;52.008;4.530;2022-07-29T00:51:34;1.81;;;1.81;;
73132;SDS011;61320;52.008;4.530;2022-07-29T00:54:02;1.90;;;1.90;;
73132;SDS011;61320;52.008;4.530;2022-07-29T00:56:29;1.91;;;1.91;;
73132;SDS011;61320;52.008;4.530;2022-07-29T00:58:56;1.80;;;1.80;;
73132;SDS011;61320;52.008;4.530;2022-07-29T01:01:22;1.88;;;1.88;;
73132;SDS011;61320;52.008;4.530;2022-07-29T01:03:48;2.05;;;2.05;;
73132;SDS011;61320;52.008;4.530;2022-07-29T01:06:15;1.91;;;1.91;;
73132;SDS011;61320;52.008;4.530;2022-07-29T01:08:43;2.03;;;2.03;;
73132;SDS011;61320;52.008;4.530;2022-07-29T01:11:10;1.90;;;1.90;;
73132;SDS011;61320;52.008;4.530;2022-07-29T01:13:37;1.91;;;1.91;;
73132;SDS011;61320;52.008;4.530;2022-07-29T01:16:09;1.93;;;1.93;;
73132;SDS011;61320;52.008;4.530;2022-07-29T01:18:41;1.92;;;1.92;;
73132;SDS011;61320;52.008;4.530;2022-07-29T01:31:39;1.89;;;1.89;;
73132;SDS011;61320;52.008;4.530;2022-07-29T01:34:10;2.13;;;2.13;;
73132;SDS011;61320;52.008;4.530;2022-07-29T01:36:44;2.07;;;2.07;;
73132;SDS011;61320;52.008;4.530;2022-07-29T01:39:34;2.27;;;2.27;;
73132;SDS011;61320;52.008;4.530;2022-07-29T01:47:39;2.31;;;2.31;;
73132;SDS011;61320;52.008;4.530;2022-07-29T01:50:30;2.18;;;2.18;;
73132;SDS011;61320;52.008;4.530;2022-07-29T01:53:02;2.16;;;2.16;;
73132;SDS011;61320;52.008;4.530;2022-07-29T01:55:34;2.35;;;2.35;;
73132;SDS011;61320;52.008;4.530;2022-07-29T01:58:03;2.14;;;2.14;;
73132;SDS011;61320;52.008;4.530;2022-07-29T02:00:31;1.99;;;1.99;;
73132;SDS011;61320;52.008;4.530;2022-07-29T02:03:00;2.20;;;2.20;;
73132;SDS011;61320;52.008;4.530;2022-07-29T02:05:30;2.21;;;2.21;;
73132;SDS011;61320;52.008;4.530;2022-07-29T02:07:59;2.11;;;2.11;;
73132;SDS011;61320;52.008;4.530;2022-07-29T02:10:29;2.20;;;2.20;;
73132;SDS011;61320;52.008;4.530;2022-07-29T02:12:58;2.29;;;2.29;;
73132;SDS011;61320;52.008;4.530;2022-07-29T02:15:26;2.21;;;2.21;;
73132;SDS011;61320;52.008;4.530;2022-07-29T02:18:01;2.16;;;2.16;;
73132;SDS011;61320;52.008;4.530;2022-07-29T02:20:31;2.25;;;2.25;;
73132;SDS011;61320;52.008;4.530;2022-07-29T02:22:58;2.28;;;2.28;;
73132;SDS011;61320;52.008;4.530;2022-07-29T02:25:25;2.13;;;2.13;;
73132;SDS011;61320;52.008;4.530;2022-07-29T02:27:52;1.99;;;1.99;;
73132;SDS011;61320;52.008;4.530;2022-07-29T02:30:20;2.32;;;2.32;;
73132;SDS011;61320;52.008;4.530;2022-07-29T02:32:49;2.09;;;2.09;;
73132;SDS011;61320;52.008;4.530;2022-07-29T02:35:16;2.22;;;2.22;;
73132;SDS011;61320;52.008;4.530;2022-07-29T02:37:44;2.12;;;2.12;;
73132;SDS011;61320;52.008;4.530;2022-07-29T02:40:35;2.16;;;2.16;;
73132;SDS011;61320;52.008;4.530;2022-07-29T02:43:04;2.15;;;2.15;;
73132;SDS011;61320;52.008;4.530;2022-07-29T02:45:32;2.08;;;2.08;;
73132;SDS011;61320;52.008;4.530;2022-07-29T02:47:58;2.27;;;2.27;;
73132;SDS011;61320;52.008;4.530;2022-07-29T02:50:35;2.19;;;2.19;;
73132;SDS011;61320;52.008;4.530;2022-07-29T02:53:06;2.13;;;2.13;;
73132;SDS011;61320;52.008;4.530;2022-07-29T02:55:52;2.28;;;2.28;;
73132;SDS011;61320;52.008;4.530;2022-07-29T02:58:25;2.20;;;2.20;;
73132;SDS011;61320;52.008;4.530;2022-07-29T03:00:59;2.35;;;2.35;;
73132;SDS011;61320;52.008;4.530;2022-07-29T03:03:29;2.71;;;2.71;;
73132;SDS011;61320;52.008;4.530;2022-07-29T03:06:01;2.54;;;2.54;;
73132;SDS011;61320;52.008;4.530;2022-07-29T03:08:28;2.60;;;2.60;;
73132;SDS011;61320;52.008;4.530;2022-07-29T03:10:56;2.97;;;2.97;;
73132;SDS011;61320;52.008;4.530;2022-07-29T03:13:23;2.64;;;2.64;;
73132;SDS011;61320;52.008;4.530;2022-07-29T03:15:50;2.58;;;2.58;;
73132;SDS011;61320;52.008;4.530;2022-07-29T03:18:17;2.34;;;2.34;;
73132;SDS011;61320;52.008;4.530;2022-07-29T03:20:43;2.48;;;2.48;;
73132;SDS011;61320;52.008;4.530;2022-07-29T03:23:09;2.55;;;2.55;;
73132;SDS011;61320;52.008;4.530;2022-07-29T03:25:34;2.70;;;2.70;;
73132;SDS011;61320;52.008;4.530;2022-07-29T03:28:00;2.55;;;2.55;;
73132;SDS011;61320;52.008;4.530;2022-07-29T03:30:26;2.63;;;2.63;;
73132;SDS011;61320;52.008;4.530;2022-07-29T03:32:52;2.45;;;2.45;;
73132;SDS011;61320;52.008;4.530;2022-07-29T03:35:18;2.47;;;2.47;;
73132;SDS011;61320;52.008;4.530;2022-07-29T03:37:44;2.37;;;2.37;;
73132;SDS011;61320;52.008;4.530;2022-07-29T03:40:11;2.54;;;2.54;;
73132;SDS011;61320;52.008;4.530;2022-07-29T03:42:39;2.53;;;2.53;;
73132;SDS011;61320;52.008;4.530;2022-07-29T03:45:09;2.67;;;2.67;;
73132;SDS011;61320;52.008;4.530;2022-07-29T03:47:39;2.74;;;2.74;;
73132;SDS011;61320;52.008;4.530;2022-07-29T03:50:09;2.78;;;2.78;;
73132;SDS011;61320;52.008;4.530;2022-07-29T03:52:38;3.06;;;3.06;;
73132;SDS011;61320;52.008;4.530;2022-07-29T03:55:05;3.09;;;3.09;;
73132;SDS011;61320;52.008;4.530;2022-07-29T03:57:31;3.08;;;3.08;;
73132;SDS011;61320;52.008;4.530;2022-07-29T04:00:00;3.24;;;3.24;;
73132;SDS011;61320;52.008;4.530;2022-07-29T04:02:28;3.03;;;3.03;;
73132;SDS011;61320;52.008;4.530;2022-07-29T04:04:55;2.83;;;2.83;;
73132;SDS011;61320;52.008;4.530;2022-07-29T04:07:21;3.03;;;3.03;;
73132;SDS011;61320;52.008;4.530;2022-07-29T04:09:46;2.85;;;2.85;;
73132;SDS011;61320;52.008;4.530;2022-07-29T04:12:11;3.12;;;3.12;;
73132;SDS011;61320;52.008;4.530;2022-07-29T04:14:37;2.82;;;2.82;;
73132;SDS011;61320;52.008;4.530;2022-07-29T04:17:03;3.11;;;3.11;;
73132;SDS011;61320;52.008;4.530;2022-07-29T04:19:32;2.94;;;2.94;;
73132;SDS011;61320;52.008;4.530;2022-07-29T04:21:59;2.91;;;2.91;;
73132;SDS011;61320;52.008;4.530;2022-07-29T04:24:25;3.09;;;3.09;;
73132;SDS011;61320;52.008;4.530;2022-07-29T04:26:51;3.01;;;3.01;;
73132;SDS011;61320;52.008;4.530;2022-07-29T04:29:17;3.29;;;3.29;;
73132;SDS011;61320;52.008;4.530;2022-07-29T04:31:42;3.33;;;3.33;;
73132;SDS011;61320;52.008;4.530;2022-07-29T04:34:08;3.15;;;3.15;;
73132;SDS011;61320;52.008;4.530;2022-07-29T04:36:35;3.04;;;3.04;;
73132;SDS011;61320;52.008;4.530;2022-07-29T04:39:01;3.10;;;3.10;;
73132;SDS011;61320;52.008;4.530;2022-07-29T04:41:27;3.19;;;3.19;;
73132;SDS011;61320;52.008;4.530;2022-07-29T04:43:53;3.11;;;3.11;;
73132;SDS011;61320;52.008;4.530;2022-07-29T04:46:18;3.14;;;3.14;;
73132;SDS011;61320;52.008;4.530;2022-07-29T04:48:47;3.07;;;3.07;;
73132;SDS011;61320;52.008;4.530;2022-07-29T04:51:13;3.04;;;3.04;;
73132;SDS011;61320;52.008;4.530;2022-07-29T04:53:39;3.12;;;3.12;;
73132;SDS011;61320;52.008;4.530;2022-07-29T04:56:04;3.21;;;3.21;;
73132;SDS011;61320;52.008;4.530;2022-07-29T04:58:30;3.42;;;3.42;;
73132;SDS011;61320;52.008;4.530;2022-07-29T05:00:55;3.15;;;3.15;;
73132;SDS011;61320;52.008;4.530;2022-07-29T05:03:21;3.19;;;3.19;;
73132;SDS011;61320;52.008;4.530;2022-07-29T05:05:46;3.13;;;3.13;;
73132;SDS011;61320;52.008;4.530;2022-07-29T05:08:12;3.11;;;3.11;;
73132;SDS011;61320;52.008;4.530;2022-07-29T05:10:37;3.35;;;3.35;;
73132;SDS011;61320;52.008;4.530;2022-07-29T05:13:04;3.17;;;3.17;;
73132;SDS011;61320;52.008;4.530;2022-07-29T05:15:31;3.04;;;3.04;;
73132;SDS011;61320;52.008;4.530;2022-07-29T05:17:57;3.28;;;3.28;;
73132;SDS011;61320;52.008;4.530;2022-07-29T05:20:23;3.27;;;3.27;;
73132;SDS011;61320;52.008;4.530;2022-07-29T05:22:53;3.30;;;3.30;;
73132;SDS011;61320;52.008;4.530;2022-07-29T05:25:19;3.19;;;3.19;;
73132;SDS011;61320;52.008;4.530;2022-07-29T05:27:45;3.30;;;3.30;;
73132;SDS011;61320;52.008;4.530;2022-07-29T05:30:10;2.98;;;2.98;;
73132;SDS011;61320;52.008;4.530;2022-07-29T05:32:36;2.88;;;2.88;;
73132;SDS011;61320;52.008;4.530;2022-07-29T05:35:01;2.97;;;2.97;;
73132;SDS011;61320;52.008;4.530;2022-07-29T05:37:27;2.94;;;2.94;;
73132;SDS011;61320;52.008;4.530;2022-07-29T05:39:52;3.05;;;3.05;;
73132;SDS011;61320;52.008;4.530;2022-07-29T05:42:18;2.75;;;2.75;;
73132;SDS011;61320;52.008;4.530;2022-07-29T05:44:43;2.71;;;2.71;;
73132;SDS011;61320;52.008;4.530;2022-07-29T05:47:09;2.94;;;2.94;;
73132;SDS011;61320;52.008;4.530;2022-07-29T05:49:34;2.96;;;2.96;;
73132;SDS011;61320;52.008;4.530;2022-07-29T05:52:03;2.78;;;2.78;;
73132;SDS011;61320;52.008;4.530;2022-07-29T05:54:29;2.62;;;2.62;;
73132;SDS011;61320;52.008;4.530;2022-07-29T05:56:55;2.60;;;2.60;;
73132;SDS011;61320;52.008;4.530;2022-07-29T05:59:21;2.59;;;2.59;;
73132;SDS011;61320;52.008;4.530;2022-07-29T06:01:46;2.43;;;2.43;;
73132;SDS011;61320;52.008;4.530;2022-07-29T06:04:12;2.60;;;2.60;;
73132;SDS011;61320;52.008;4.530;2022-07-29T06:06:37;2.74;;;2.74;;
73132;SDS011;61320;52.008;4.530;2022-07-29T06:09:03;2.66;;;2.66;;
73132;SDS011;61320;52.008;4.530;2022-07-29T06:11:28;2.60;;;2.60;;
73132;SDS011;61320;52.008;4.530;2022-07-29T06:13:54;2.61;;;2.61;;
73132;SDS011;61320;52.008;4.530;2022-07-29T06:16:19;2.44;;;2.44;;
73132;SDS011;61320;52.008;4.530;2022-07-29T06:18:45;2.55;;;2.55;;
73132;SDS011;61320;52.008;4.530;2022-07-29T06:21:10;2.40;;;2.40;;
73132;SDS011;61320;52.008;4.530;2022-07-29T06:23:36;2.50;;;2.50;;
73132;SDS011;61320;52.008;4.530;2022-07-29T06:26:03;2.53;;;2.53;;
73132;SDS011;61320;52.008;4.530;2022-07-29T06:28:28;2.56;;;2.56;;
73132;SDS011;61320;52.008;4.530;2022-07-29T06:30:54;2.45;;;2.45;;
73132;SDS011;61320;52.008;4.530;2022-07-29T06:33:20;2.56;;;2.56;;
73132;SDS011;61320;52.008;4.530;2022-07-29T06:35:45;2.68;;;2.68;;
73132;SDS011;61320;52.008;4.530;2022-07-29T06:38:13;2.79;;;2.79;;
73132;SDS011;61320;52.008;4.530;2022-07-29T06:40:42;2.50;;;2.50;;
73132;SDS011;61320;52.008;4.530;2022-07-29T06:43:37;2.65;;;2.65;;
73132;SDS011;61320;52.008;4.530;2022-07-29T06:46:24;2.61;;;2.61;;
73132;SDS011;61320;52.008;4.530;2022-07-29T06:48:49;2.72;;;2.72;;
73132;SDS011;61320;52.008;4.530;2022-07-29T06:51:16;2.40;;;2.40;;
73132;SDS011;61320;52.008;4.530;2022-07-29T06:53:41;2.52;;;2.52;;
73132;SDS011;61320;52.008;4.530;2022-07-29T06:56:07;2.48;;;2.48;;
73132;SDS011;61320;52.008;4.530;2022-07-29T06:58:37;2.47;;;2.47;;
73132;SDS011;61320;52.008;4.530;2022-07-29T07:01:04;2.59;;;2.59;;
73132;SDS011;61320;52.008;4.530;2022-07-29T07:03:31;2.73;;;2.73;;
73132;SDS011;61320;52.008;4.530;2022-07-29T07:05:56;2.92;;;2.92;;
73132;SDS011;61320;52.008;4.530;2022-07-29T07:08:25;2.66;;;2.66;;
73132;SDS011;61320;52.008;4.530;2022-07-29T07:10:51;2.80;;;2.80;;
73132;SDS011;61320;52.008;4.530;2022-07-29T07:13:18;2.90;;;2.90;;
73132;SDS011;61320;52.008;4.530;2022-07-29T07:15:44;2.76;;;2.76;;
73132;SDS011;61320;52.008;4.530;2022-07-29T07:18:10;2.58;;;2.58;;
73132;SDS011;61320;52.008;4.530;2022-07-29T07:20:36;2.45;;;2.45;;
73132;SDS011;61320;52.008;4.530;2022-07-29T07:23:02;2.44;;;2.44;;
73132;SDS011;61320;52.008;4.530;2022-07-29T07:25:28;2.71;;;2.71;;
73132;SDS011;61320;52.008;4.530;2022-07-29T07:27:54;2.72;;;2.72;;
73132;SDS011;61320;52.008;4.530;2022-07-29T07:30:19;2.71;;;2.71;;
73132;SDS011;61320;52.008;4.530;2022-07-29T07:32:45;2.78;;;2.78;;
73132;SDS011;61320;52.008;4.530;2022-07-29T07:35:10;2.62;;;2.62;;
73132;SDS011;61320;52.008;4.530;2022-07-29T07:37:36;2.65;;;2.65;;
73132;SDS011;61320;52.008;4.530;2022-07-29T07:40:03;2.72;;;2.72;;
73132;SDS011;61320;52.008;4.530;2022-07-29T07:42:29;2.61;;;2.61;;
73132;SDS011;61320;52.008;4.530;2022-07-29T07:44:55;2.65;;;2.65;;
73132;SDS011;61320;52.008;4.530;2022-07-29T07:47:21;2.62;;;2.62;;
73132;SDS011;61320;52.008;4.530;2022-07-29T07:49:51;2.91;;;2.91;;
73132;SDS011;61320;52.008;4.530;2022-07-29T07:52:18;2.74;;;2.74;;
73132;SDS011;61320;52.008;4.530;2022-07-29T07:54:46;2.65;;;2.65;;
73132;SDS011;61320;52.008;4.530;2022-07-29T07:57:11;2.62;;;2.62;;
73132;SDS011;61320;52.008;4.530;2022-07-29T07:59:37;2.73;;;2.73;;
73132;SDS011;61320;52.008;4.530;2022-07-29T08:02:03;2.61;;;2.61;;
73132;SDS011;61320;52.008;4.530;2022-07-29T08:04:29;2.76;;;2.76;;
73132;SDS011;61320;52.008;4.530;2022-07-29T08:06:56;2.86;;;2.86;;
73132;SDS011;61320;52.008;4.530;2022-07-29T08:09:23;2.91;;;2.91;;
73132;SDS011;61320;52.008;4.530;2022-07-29T08:11:50;2.91;;;2.91;;
73132;SDS011;61320;52.008;4.530;2022-07-29T08:14:20;2.85;;;2.85;;
73132;SDS011;61320;52.008;4.530;2022-07-29T08:16:45;2.94;;;2.94;;
73132;SDS011;61320;52.008;4.530;2022-07-29T08:19:11;2.83;;;2.83;;
73132;SDS011;61320;52.008;4.530;2022-07-29T08:21:37;3.07;;;3.07;;
73132;SDS011;61320;52.008;4.530;2022-07-29T08:24:03;2.82;;;2.82;;
73132;SDS011;61320;52.008;4.530;2022-07-29T08:26:48;2.94;;;2.94;;
73132;SDS011;61320;52.008;4.530;2022-07-29T08:29:13;2.83;;;2.83;;
73132;SDS011;61320;52.008;4.530;2022-07-29T08:31:39;3.01;;;3.01;;
73132;SDS011;61320;52.008;4.530;2022-07-29T08:34:08;2.70;;;2.70;;
73132;SDS011;61320;52.008;4.530;2022-07-29T08:36:37;3.03;;;3.03;;
73132;SDS011;61320;52.008;4.530;2022-07-29T08:39:03;3.09;;;3.09;;
73132;SDS011;61320;52.008;4.530;2022-07-29T08:41:29;2.87;;;2.87;;
73132;SDS011;61320;52.008;4.530;2022-07-29T08:43:58;2.91;;;2.91;;
73132;SDS011;61320;52.008;4.530;2022-07-29T08:46:23;2.77;;;2.77;;
73132;SDS011;61320;52.008;4.530;2022-07-29T08:48:49;2.83;;;2.83;;
73132;SDS011;61320;52.008;4.530;2022-07-29T08:51:18;3.05;;;3.05;;
73132;SDS011;61320;52.008;4.530;2022-07-29T08:53:47;3.25;;;3.25;;
73132;SDS011;61320;52.008;4.530;2022-07-29T08:56:18;3.11;;;3.11;;
73132;SDS011;61320;52.008;4.530;2022-07-29T08:58:46;3.06;;;3.06;;
73132;SDS011;61320;52.008;4.530;2022-07-29T09:01:17;2.89;;;2.89;;
73132;SDS011;61320;52.008;4.530;2022-07-29T09:03:55;3.10;;;3.10;;
73132;SDS011;61320;52.008;4.530;2022-07-29T09:06:34;2.66;;;2.66;;
73132;SDS011;61320;52.008;4.530;2022-07-29T09:09:13;2.94;;;2.94;;
73132;SDS011;61320;52.008;4.530;2022-07-29T09:12:02;2.73;;;2.73;;
73132;SDS011;61320;52.008;4.530;2022-07-29T09:14:29;2.97;;;2.97;;
73132;SDS011;61320;52.008;4.530;2022-07-29T09:16:55;2.83;;;2.83;;
73132;SDS011;61320;52.008;4.530;2022-07-29T09:19:26;2.82;;;2.82;;
73132;SDS011;61320;52.008;4.530;2022-07-29T09:21:57;3.54;;;3.54;;
73132;SDS011;61320;52.008;4.530;2022-07-29T09:24:35;3.30;;;3.30;;
73132;SDS011;61320;52.008;4.530;2022-07-29T09:27:03;3.19;;;3.19;;
73132;SDS011;61320;52.008;4.530;2022-07-29T09:29:43;3.39;;;3.39;;
73132;SDS011;61320;52.008;4.530;2022-07-29T09:32:14;2.94;;;2.94;;
73132;SDS011;61320;52.008;4.530;2022-07-29T09:34:40;2.95;;;2.95;;
73132;SDS011;61320;52.008;4.530;2022-07-29T09:37:06;2.97;;;2.97;;
73132;SDS011;61320;52.008;4.530;2022-07-29T09:42:01;3.02;;;3.02;;
73132;SDS011;61320;52.008;4.530;2022-07-29T09:44:45;3.39;;;3.39;;
73132;SDS011;61320;52.008;4.530;2022-07-29T09:47:18;3.32;;;3.32;;
73132;SDS011;61320;52.008;4.530;2022-07-29T09:49:51;3.33;;;3.33;;
73132;SDS011;61320;52.008;4.530;2022-07-29T09:52:24;3.20;;;3.20;;
73132;SDS011;61320;52.008;4.530;2022-07-29T09:54:52;2.93;;;2.93;;
73132;SDS011;61320;52.008;4.530;2022-07-29T09:57:27;3.27;;;3.27;;
73132;SDS011;61320;52.008;4.530;2022-07-29T10:02:34;3.18;;;3.18;;
73132;SDS011;61320;52.008;4.530;2022-07-29T10:05:02;3.17;;;3.17;;
73132;SDS011;61320;52.008;4.530;2022-07-29T10:07:47;3.69;;;3.69;;
73132;SDS011;61320;52.008;4.530;2022-07-29T10:10:24;3.49;;;3.49;;
73132;SDS011;61320;52.008;4.530;2022-07-29T10:12:55;3.38;;;3.38;;
73132;SDS011;61320;52.008;4.530;2022-07-29T10:15:23;4.04;;;4.04;;
73132;SDS011;61320;52.008;4.530;2022-07-29T10:17:51;3.77;;;3.77;;
73132;SDS011;61320;52.008;4.530;2022-07-29T10:20:22;3.66;;;3.66;;
73132;SDS011;61320;52.008;4.530;2022-07-29T10:22:49;3.57;;;3.57;;
73132;SDS011;61320;52.008;4.530;2022-07-29T10:25:16;3.99;;;3.99;;
73132;SDS011;61320;52.008;4.530;2022-07-29T10:27:43;3.82;;;3.82;;
73132;SDS011;61320;52.008;4.530;2022-07-29T10:30:11;3.53;;;3.53;;
73132;SDS011;61320;52.008;4.530;2022-07-29T10:32:44;3.24;;;3.24;;
73132;SDS011;61320;52.008;4.530;2022-07-29T10:35:44;3.53;;;3.53;;
73132;SDS011;61320;52.008;4.530;2022-07-29T10:46:38;2.96;;;2.96;;
73132;SDS011;61320;52.008;4.530;2022-07-29T10:49:09;2.65;;;2.65;;
73132;SDS011;61320;52.008;4.530;2022-07-29T10:51:57;2.56;;;2.56;;
73132;SDS011;61320;52.008;4.530;2022-07-29T10:54:45;2.87;;;2.87;;
73132;SDS011;61320;52.008;4.530;2022-07-29T10:57:27;2.71;;;2.71;;
73132;SDS011;61320;52.008;4.530;2022-07-29T11:07:25;2.31;;;2.31;;
73132;SDS011;61320;52.008;4.530;2022-07-29T11:20:38;2.18;;;2.18;;
73132;SDS011;61320;52.008;4.530;2022-07-29T11:31:19;2.21;;;2.21;;
73132;SDS011;61320;52.008;4.530;2022-07-29T11:34:15;2.31;;;2.31;;
73132;SDS011;61320;52.008;4.530;2022-07-29T11:39:37;2.13;;;2.13;;
73132;SDS011;61320;52.008;4.530;2022-07-29T11:45:03;1.96;;;1.96;;
73132;SDS011;61320;52.008;4.530;2022-07-29T11:47:46;1.90;;;1.90;;
73132;SDS011;61320;52.008;4.530;2022-07-29T11:50:34;1.98;;;1.98;;
73132;SDS011;61320;52.008;4.530;2022-07-29T11:53:11;1.85;;;1.85;;
73132;SDS011;61320;52.008;4.530;2022-07-29T11:55:39;2.00;;;2.00;;
73132;SDS011;61320;52.008;4.530;2022-07-29T11:58:05;2.43;;;2.43;;
73132;SDS011;61320;52.008;4.530;2022-07-29T12:02:58;2.04;;;2.04;;
73132;SDS011;61320;52.008;4.530;2022-07-29T12:05:39;1.90;;;1.90;;
73132;SDS011;61320;52.008;4.530;2022-07-29T12:08:13;2.52;;;2.52;;
73132;SDS011;61320;52.008;4.530;2022-07-29T12:10:44;1.81;;;1.81;;
73132;SDS011;61320;52.008;4.530;2022-07-29T12:13:11;1.86;;;1.86;;
73132;SDS011;61320;52.008;4.530;2022-07-29T12:15:38;1.53;;;1.53;;
73132;SDS011;61320;52.008;4.530;2022-07-29T12:18:22;1.99;;;1.99;;
73132;SDS011;61320;52.008;4.530;2022-07-29T12:20:49;1.81;;;1.81;;
73132;SDS011;61320;52.008;4.530;2022-07-29T12:23:22;1.96;;;1.96;;
73132;SDS011;61320;52.008;4.530;2022-07-29T12:25:47;1.79;;;1.79;;
73132;SDS011;61320;52.008;4.530;2022-07-29T12:28:14;1.83;;;1.83;;
73132;SDS011;61320;52.008;4.530;2022-07-29T12:33:10;2.19;;;2.19;;
73132;SDS011;61320;52.008;4.530;2022-07-29T12:35:39;1.95;;;1.95;;
73132;SDS011;61320;52.008;4.530;2022-07-29T12:38:09;1.93;;;1.93;;
73132;SDS011;61320;52.008;4.530;2022-07-29T12:40:36;2.11;;;2.11;;
73132;SDS011;61320;52.008;4.530;2022-07-29T12:45:34;2.06;;;2.06;;
73132;SDS011;61320;52.008;4.530;2022-07-29T12:48:01;2.13;;;2.13;;
73132;SDS011;61320;52.008;4.530;2022-07-29T12:50:27;2.26;;;2.26;;
73132;SDS011;61320;52.008;4.530;2022-07-29T12:52:52;2.57;;;2.57;;
73132;SDS011;61320;52.008;4.530;2022-07-29T12:58:04;2.22;;;2.22;;
73132;SDS011;61320;52.008;4.530;2022-07-29T13:00:29;2.27;;;2.27;;
73132;SDS011;61320;52.008;4.530;2022-07-29T13:02:56;2.03;;;2.03;;
73132;SDS011;61320;52.008;4.530;2022-07-29T13:05:23;2.60;;;2.60;;
73132;SDS011;61320;52.008;4.530;2022-07-29T13:08:36;2.70;;;2.70;;
73132;SDS011;61320;52.008;4.530;2022-07-29T13:10:55;2.43;;;2.43;;
73132;SDS011;61320;52.008;4.530;2022-07-29T13:13:20;2.72;;;2.72;;
73132;SDS011;61320;52.008;4.530;2022-07-29T13:15:46;2.20;;;2.20;;
73132;SDS011;61320;52.008;4.530;2022-07-29T13:18:30;2.57;;;2.57;;
73132;SDS011;61320;52.008;4.530;2022-07-29T13:20:58;2.49;;;2.49;;
73132;SDS011;61320;52.008;4.530;2022-07-29T13:23:39;2.33;;;2.33;;
73132;SDS011;61320;52.008;4.530;2022-07-29T13:26:08;2.19;;;2.19;;
73132;SDS011;61320;52.008;4.530;2022-07-29T13:28:36;2.69;;;2.69;;
73132;SDS011;61320;52.008;4.530;2022-07-29T13:31:02;2.17;;;2.17;;
73132;SDS011;61320;52.008;4.530;2022-07-29T13:33:27;2.40;;;2.40;;
73132;SDS011;61320;52.008;4.530;2022-07-29T13:35:53;2.22;;;2.22;;
73132;SDS011;61320;52.008;4.530;2022-07-29T13:38:18;2.53;;;2.53;;
73132;SDS011;61320;52.008;4.530;2022-07-29T13:40:46;2.36;;;2.36;;
73132;SDS011;61320;52.008;4.530;2022-07-29T13:43:14;2.08;;;2.08;;
73132;SDS011;61320;52.008;4.530;2022-07-29T13:45:39;2.02;;;2.02;;
73132;SDS011;61320;52.008;4.530;2022-07-29T13:48:06;2.03;;;2.03;;
73132;SDS011;61320;52.008;4.530;2022-07-29T13:50:32;2.19;;;2.19;;
73132;SDS011;61320;52.008;4.530;2022-07-29T13:52:57;2.28;;;2.28;;
73132;SDS011;61320;52.008;4.530;2022-07-29T13:55:23;2.04;;;2.04;;
73132;SDS011;61320;52.008;4.530;2022-07-29T13:57:52;2.16;;;2.16;;
73132;SDS011;61320;52.008;4.530;2022-07-29T14:00:17;2.18;;;2.18;;
73132;SDS011;61320;52.008;4.530;2022-07-29T14:02:44;2.06;;;2.06;;
73132;SDS011;61320;52.008;4.530;2022-07-29T14:05:09;2.15;;;2.15;;
73132;SDS011;61320;52.008;4.530;2022-07-29T14:07:38;1.97;;;1.97;;
73132;SDS011;61320;52.008;4.530;2022-07-29T14:10:04;2.47;;;2.47;;
73132;SDS011;61320;52.008;4.530;2022-07-29T14:12:30;2.19;;;2.19;;
73132;SDS011;61320;52.008;4.530;2022-07-29T14:14:55;2.04;;;2.04;;
73132;SDS011;61320;52.008;4.530;2022-07-29T14:17:21;2.13;;;2.13;;
73132;SDS011;61320;52.008;4.530;2022-07-29T14:19:48;2.05;;;2.05;;
73132;SDS011;61320;52.008;4.530;2022-07-29T14:22:14;2.22;;;2.22;;
73132;SDS011;61320;52.008;4.530;2022-07-29T14:24:40;2.35;;;2.35;;
73132;SDS011;61320;52.008;4.530;2022-07-29T14:27:06;2.10;;;2.10;;
73132;SDS011;61320;52.008;4.530;2022-07-29T14:29:33;2.10;;;2.10;;
73132;SDS011;61320;52.008;4.530;2022-07-29T14:31:59;1.83;;;1.83;;
73132;SDS011;61320;52.008;4.530;2022-07-29T14:34:27;2.27;;;2.27;;
73132;SDS011;61320;52.008;4.530;2022-07-29T14:36:53;1.94;;;1.94;;
73132;SDS011;61320;52.008;4.530;2022-07-29T14:39:21;2.10;;;2.10;;
73132;SDS011;61320;52.008;4.530;2022-07-29T14:41:48;2.18;;;2.18;;
73132;SDS011;61320;52.008;4.530;2022-07-29T14:44:14;2.09;;;2.09;;
73132;SDS011;61320;52.008;4.530;2022-07-29T14:46:40;2.28;;;2.28;;
73132;SDS011;61320;52.008;4.530;2022-07-29T14:49:05;2.01;;;2.01;;
73132;SDS011;61320;52.008;4.530;2022-07-29T14:51:38;1.98;;;1.98;;
73132;SDS011;61320;52.008;4.530;2022-07-29T14:54:04;2.12;;;2.12;;
73132;SDS011;61320;52.008;4.530;2022-07-29T14:56:29;2.23;;;2.23;;
73132;SDS011;61320;52.008;4.530;2022-07-29T14:58:55;2.01;;;2.01;;
73132;SDS011;61320;52.008;4.530;2022-07-29T15:01:22;1.71;;;1.71;;
73132;SDS011;61320;52.008;4.530;2022-07-29T15:03:48;1.98;;;1.98;;
73132;SDS011;61320;52.008;4.530;2022-07-29T15:06:14;2.32;;;2.32;;
73132;SDS011;61320;52.008;4.530;2022-07-29T15:08:39;2.08;;;2.08;;
73132;SDS011;61320;52.008;4.530;2022-07-29T15:11:05;2.06;;;2.06;;
73132;SDS011;61320;52.008;4.530;2022-07-29T15:13:30;1.87;;;1.87;;
73132;SDS011;61320;52.008;4.530;2022-07-29T15:15:56;2.06;;;2.06;;
73132;SDS011;61320;52.008;4.530;2022-07-29T15:18:21;1.75;;;1.75;;
73132;SDS011;61320;52.008;4.530;2022-07-29T15:20:47;2.04;;;2.04;;
73132;SDS011;61320;52.008;4.530;2022-07-29T15:23:12;1.98;;;1.98;;
73132;SDS011;61320;52.008;4.530;2022-07-29T15:25:38;2.20;;;2.20;;
73132;SDS011;61320;52.008;4.530;2022-07-29T15:28:06;1.84;;;1.84;;
73132;SDS011;61320;52.008;4.530;2022-07-29T15:30:32;1.95;;;1.95;;
73132;SDS011;61320;52.008;4.530;2022-07-29T15:33:02;1.97;;;1.97;;
73132;SDS011;61320;52.008;4.530;2022-07-29T15:35:30;1.86;;;1.86;;
73132;SDS011;61320;52.008;4.530;2022-07-29T15:37:56;1.80;;;1.80;;
73132;SDS011;61320;52.008;4.530;2022-07-29T15:40:22;1.72;;;1.72;;
73132;SDS011;61320;52.008;4.530;2022-07-29T15:42:47;1.74;;;1.74;;
73132;SDS011;61320;52.008;4.530;2022-07-29T15:45:12;1.97;;;1.97;;
73132;SDS011;61320;52.008;4.530;2022-07-29T15:47:38;1.77;;;1.77;;
73132;SDS011;61320;52.008;4.530;2022-07-29T15:50:06;1.80;;;1.80;;
73132;SDS011;61320;52.008;4.530;2022-07-29T15:52:37;1.51;;;1.51;;
73132;SDS011;61320;52.008;4.530;2022-07-29T15:55:02;1.81;;;1.81;;
73132;SDS011;61320;52.008;4.530;2022-07-29T15:57:29;1.88;;;1.88;;
73132;SDS011;61320;52.008;4.530;2022-07-29T15:59:55;1.72;;;1.72;;
73132;SDS011;61320;52.008;4.530;2022-07-29T16:02:21;1.80;;;1.80;;
73132;SDS011;61320;52.008;4.530;2022-07-29T16:04:46;1.71;;;1.71;;
73132;SDS011;61320;52.008;4.530;2022-07-29T16:07:12;1.86;;;1.86;;